sensor_id;sensor_type;location;lat;lon;timestamp;P1;durP1;ratioP1;P2;durP2;ratioP2
5303;SDS011;2674;49.722;10.892;2023-03-23T00:02:06;9.53;;;5.00;;
5303;SDS011;2674;49.722;10.892;2023-03-23T00:04:32;5.10;;;3.87;;
5303;SDS011;2674;49.722;10.892;2023-03-23T00:06:58;5.33;;;4.70;;
5303;SDS011;2674;49.722;10.892;2023-03-23T00:09:28;4.80;;;4.20;;
5303;SDS011;2674;49.722;10.892;2023-03-23T00:11:55;4.77;;;4.30;;
5303;SDS011;2674;49.722;10.892;2023-03-23T00:14:25;7.30;;;4.57;;
5303;SDS011;2674;49.722;10.892;2023-03-23T00:16:51;4.43;;;4.03;;
5303;SDS011;2674;49.722;10.892;2023-03-23T00:19:16;10.80;;;4.93;;
5303;SDS011;2674;49.722;10.892;2023-03-23T00:21:44;6.10;;;3.70;;
5303;SDS011;2674;49.722;10.892;2023-03-23T00:24:15;5.40;;;4.30;;
5303;SDS011;2674;49.722;10.892;2023-03-23T00:26:44;5.90;;;4.27;;
5303;SDS011;2674;49.722;10.892;2023-03-23T00:29:15;7.00;;;3.13;;
5303;SDS011;2674;49.722;10.892;2023-03-23T00:31:47;7.70;;;4.80;;
5303;SDS011;2674;49.722;10.892;2023-03-23T00:34:14;6.77;;;3.97;;
5303;SDS011;2674;49.722;10.892;2023-03-23T00:36:44;7.60;;;4.50;;
5303;SDS011;2674;49.722;10.892;2023-03-23T00:39:11;5.40;;;3.80;;
5303;SDS011;2674;49.722;10.892;2023-03-23T00:41:37;9.43;;;5.10;;
5303;SDS011;2674;49.722;10.892;2023-03-23T00:44:03;7.17;;;4.80;;
5303;SDS011;2674;49.722;10.892;2023-03-23T00:46:29;6.00;;;3.47;;
5303;SDS011;2674;49.722;10.892;2023-03-23T00:48:56;5.40;;;3.93;;
5303;SDS011;2674;49.722;10.892;2023-03-23T00:51:22;4.10;;;3.80;;
5303;SDS011;2674;49.722;10.892;2023-03-23T00:53:49;7.80;;;4.13;;
5303;SDS011;2674;49.722;10.892;2023-03-23T00:56:16;11.50;;;4.93;;
5303;SDS011;2674;49.722;10.892;2023-03-23T00:58:41;8.27;;;4.53;;
5303;SDS011;2674;49.722;10.892;2023-03-23T01:01:07;5.53;;;3.80;;
5303;SDS011;2674;49.722;10.892;2023-03-23T01:03:34;5.03;;;4.50;;
5303;SDS011;2674;49.722;10.892;2023-03-23T01:06:08;5.67;;;3.90;;
5303;SDS011;2674;49.722;10.892;2023-03-23T01:08:37;10.63;;;3.90;;
5303;SDS011;2674;49.722;10.892;2023-03-23T01:11:11;12.57;;;4.60;;
5303;SDS011;2674;49.722;10.892;2023-03-23T01:13:41;5.97;;;4.10;;
5303;SDS011;2674;49.722;10.892;2023-03-23T01:16:09;5.10;;;4.00;;
5303;SDS011;2674;49.722;10.892;2023-03-23T01:18:35;7.80;;;4.23;;
5303;SDS011;2674;49.722;10.892;2023-03-23T01:21:09;8.20;;;3.90;;
5303;SDS011;2674;49.722;10.892;2023-03-23T01:23:37;7.23;;;3.73;;
5303;SDS011;2674;49.722;10.892;2023-03-23T01:26:04;8.97;;;4.10;;
5303;SDS011;2674;49.722;10.892;2023-03-23T01:28:38;4.20;;;3.33;;
5303;SDS011;2674;49.722;10.892;2023-03-23T01:31:12;4.00;;;3.13;;
5303;SDS011;2674;49.722;10.892;2023-03-23T01:33:41;6.60;;;3.57;;
5303;SDS011;2674;49.722;10.892;2023-03-23T01:36:09;3.40;;;3.07;;
5303;SDS011;2674;49.722;10.892;2023-03-23T01:38:38;6.77;;;2.50;;
5303;SDS011;2674;49.722;10.892;2023-03-23T01:41:04;5.17;;;2.50;;
5303;SDS011;2674;49.722;10.892;2023-03-23T01:43:30;2.70;;;2.50;;
5303;SDS011;2674;49.722;10.892;2023-03-23T01:45:56;3.83;;;3.00;;
5303;SDS011;2674;49.722;10.892;2023-03-23T01:48:29;4.67;;;2.50;;
5303;SDS011;2674;49.722;10.892;2023-03-23T01:53:30;6.13;;;2.47;;
5303;SDS011;2674;49.722;10.892;2023-03-23T01:56:03;8.47;;;2.87;;
5303;SDS011;2674;49.722;10.892;2023-03-23T01:58:31;2.60;;;1.87;;
5303;SDS011;2674;49.722;10.892;2023-03-23T02:01:00;2.60;;;2.40;;
5303;SDS011;2674;49.722;10.892;2023-03-23T02:03:31;3.20;;;2.57;;
5303;SDS011;2674;49.722;10.892;2023-03-23T02:05:59;12.80;;;2.83;;
5303;SDS011;2674;49.722;10.892;2023-03-23T02:08:28;3.27;;;2.27;;
5303;SDS011;2674;49.722;10.892;2023-03-23T02:10:57;2.03;;;1.90;;
5303;SDS011;2674;49.722;10.892;2023-03-23T02:13:24;25.77;;;2.63;;
5303;SDS011;2674;49.722;10.892;2023-03-23T02:15:54;3.20;;;2.37;;
5303;SDS011;2674;49.722;10.892;2023-03-23T02:18:42;2.93;;;2.63;;
5303;SDS011;2674;49.722;10.892;2023-03-23T02:22:00;5.30;;;2.53;;
5303;SDS011;2674;49.722;10.892;2023-03-23T02:24:40;2.00;;;1.80;;
5303;SDS011;2674;49.722;10.892;2023-03-23T02:27:33;3.93;;;2.10;;
5303;SDS011;2674;49.722;10.892;2023-03-23T02:30:37;5.53;;;2.13;;
5303;SDS011;2674;49.722;10.892;2023-03-23T02:33:24;4.70;;;2.47;;
5303;SDS011;2674;49.722;10.892;2023-03-23T02:36:26;2.97;;;2.17;;
5303;SDS011;2674;49.722;10.892;2023-03-23T02:42:08;4.03;;;2.43;;
5303;SDS011;2674;49.722;10.892;2023-03-23T02:44:38;3.10;;;2.23;;
5303;SDS011;2674;49.722;10.892;2023-03-23T02:47:08;3.47;;;2.63;;
5303;SDS011;2674;49.722;10.892;2023-03-23T02:49:40;2.47;;;2.27;;
5303;SDS011;2674;49.722;10.892;2023-03-23T02:52:14;2.70;;;2.50;;
5303;SDS011;2674;49.722;10.892;2023-03-23T02:54:44;8.83;;;2.40;;
5303;SDS011;2674;49.722;10.892;2023-03-23T02:57:12;2.30;;;2.10;;
5303;SDS011;2674;49.722;10.892;2023-03-23T02:59:38;4.90;;;2.43;;
5303;SDS011;2674;49.722;10.892;2023-03-23T03:04:35;3.00;;;2.50;;
5303;SDS011;2674;49.722;10.892;2023-03-23T03:12:24;2.30;;;2.20;;
5303;SDS011;2674;49.722;10.892;2023-03-23T03:17:36;2.40;;;2.20;;
5303;SDS011;2674;49.722;10.892;2023-03-23T03:20:08;2.77;;;2.13;;
5303;SDS011;2674;49.722;10.892;2023-03-23T03:22:39;2.63;;;2.20;;
5303;SDS011;2674;49.722;10.892;2023-03-23T03:25:07;2.47;;;2.27;;
5303;SDS011;2674;49.722;10.892;2023-03-23T03:27:37;2.77;;;2.50;;
5303;SDS011;2674;49.722;10.892;2023-03-23T03:30:06;2.90;;;2.70;;
5303;SDS011;2674;49.722;10.892;2023-03-23T03:32:38;4.30;;;3.90;;
5303;SDS011;2674;49.722;10.892;2023-03-23T03:35:11;5.13;;;2.80;;
5303;SDS011;2674;49.722;10.892;2023-03-23T03:37:38;3.17;;;2.87;;
5303;SDS011;2674;49.722;10.892;2023-03-23T03:42:36;3.60;;;3.27;;
5303;SDS011;2674;49.722;10.892;2023-03-23T03:45:10;3.80;;;3.50;;
5303;SDS011;2674;49.722;10.892;2023-03-23T03:47:38;2.77;;;2.63;;
5303;SDS011;2674;49.722;10.892;2023-03-23T03:50:04;3.73;;;3.37;;
5303;SDS011;2674;49.722;10.892;2023-03-23T03:52:31;3.13;;;2.83;;
5303;SDS011;2674;49.722;10.892;2023-03-23T03:54:57;3.83;;;2.80;;
5303;SDS011;2674;49.722;10.892;2023-03-23T03:57:23;4.90;;;2.77;;
5303;SDS011;2674;49.722;10.892;2023-03-23T03:59:49;2.93;;;2.50;;
5303;SDS011;2674;49.722;10.892;2023-03-23T04:02:16;3.07;;;2.70;;
5303;SDS011;2674;49.722;10.892;2023-03-23T04:04:48;4.97;;;3.47;;
5303;SDS011;2674;49.722;10.892;2023-03-23T04:07:15;3.40;;;3.20;;
5303;SDS011;2674;49.722;10.892;2023-03-23T04:09:44;2.93;;;2.53;;
5303;SDS011;2674;49.722;10.892;2023-03-23T04:12:14;2.83;;;2.50;;
5303;SDS011;2674;49.722;10.892;2023-03-23T04:14:40;3.27;;;2.30;;
5303;SDS011;2674;49.722;10.892;2023-03-23T04:17:06;3.00;;;2.17;;
5303;SDS011;2674;49.722;10.892;2023-03-23T04:19:35;3.40;;;2.13;;
5303;SDS011;2674;49.722;10.892;2023-03-23T04:22:02;3.93;;;2.90;;
5303;SDS011;2674;49.722;10.892;2023-03-23T04:24:29;2.40;;;2.20;;
5303;SDS011;2674;49.722;10.892;2023-03-23T04:26:58;6.87;;;3.50;;
5303;SDS011;2674;49.722;10.892;2023-03-23T04:29:25;3.40;;;2.77;;
5303;SDS011;2674;49.722;10.892;2023-03-23T04:31:51;4.03;;;2.17;;
5303;SDS011;2674;49.722;10.892;2023-03-23T04:34:17;2.27;;;2.17;;
5303;SDS011;2674;49.722;10.892;2023-03-23T04:36:43;3.27;;;2.67;;
5303;SDS011;2674;49.722;10.892;2023-03-23T04:39:11;2.20;;;2.10;;
5303;SDS011;2674;49.722;10.892;2023-03-23T04:41:38;3.70;;;1.70;;
5303;SDS011;2674;49.722;10.892;2023-03-23T04:44:05;2.47;;;2.37;;
5303;SDS011;2674;49.722;10.892;2023-03-23T04:46:32;2.63;;;1.90;;
5303;SDS011;2674;49.722;10.892;2023-03-23T04:48:58;4.40;;;2.47;;
5303;SDS011;2674;49.722;10.892;2023-03-23T04:51:25;3.23;;;2.50;;
5303;SDS011;2674;49.722;10.892;2023-03-23T04:53:52;4.30;;;2.53;;
5303;SDS011;2674;49.722;10.892;2023-03-23T04:56:18;2.03;;;1.93;;
5303;SDS011;2674;49.722;10.892;2023-03-23T04:58:45;3.33;;;2.23;;
5303;SDS011;2674;49.722;10.892;2023-03-23T05:01:11;3.00;;;2.17;;
5303;SDS011;2674;49.722;10.892;2023-03-23T05:03:43;2.27;;;2.17;;
5303;SDS011;2674;49.722;10.892;2023-03-23T05:06:09;2.20;;;1.93;;
5303;SDS011;2674;49.722;10.892;2023-03-23T05:08:35;1.97;;;1.87;;
5303;SDS011;2674;49.722;10.892;2023-03-23T05:11:04;5.40;;;2.30;;
5303;SDS011;2674;49.722;10.892;2023-03-23T05:13:31;2.50;;;2.17;;
5303;SDS011;2674;49.722;10.892;2023-03-23T05:15:57;4.20;;;2.40;;
5303;SDS011;2674;49.722;10.892;2023-03-23T05:18:23;2.47;;;1.70;;
5303;SDS011;2674;49.722;10.892;2023-03-23T05:20:51;2.20;;;2.10;;
5303;SDS011;2674;49.722;10.892;2023-03-23T05:23:18;3.60;;;2.40;;
5303;SDS011;2674;49.722;10.892;2023-03-23T05:25:52;3.27;;;1.53;;
5303;SDS011;2674;49.722;10.892;2023-03-23T05:28:21;2.20;;;1.73;;
5303;SDS011;2674;49.722;10.892;2023-03-23T05:30:48;3.30;;;2.00;;
5303;SDS011;2674;49.722;10.892;2023-03-23T05:33:14;3.90;;;3.53;;
5303;SDS011;2674;49.722;10.892;2023-03-23T05:35:40;1.90;;;1.80;;
5303;SDS011;2674;49.722;10.892;2023-03-23T05:38:06;3.73;;;2.13;;
5303;SDS011;2674;49.722;10.892;2023-03-23T05:40:32;2.00;;;1.83;;
5303;SDS011;2674;49.722;10.892;2023-03-23T05:42:58;4.43;;;1.90;;
5303;SDS011;2674;49.722;10.892;2023-03-23T05:45:24;4.30;;;2.73;;
5303;SDS011;2674;49.722;10.892;2023-03-23T05:47:51;5.90;;;2.30;;
5303;SDS011;2674;49.722;10.892;2023-03-23T05:50:17;3.57;;;1.97;;
5303;SDS011;2674;49.722;10.892;2023-03-23T05:52:43;2.40;;;2.20;;
5303;SDS011;2674;49.722;10.892;2023-03-23T05:55:10;2.23;;;2.13;;
5303;SDS011;2674;49.722;10.892;2023-03-23T05:57:36;7.63;;;2.43;;
5303;SDS011;2674;49.722;10.892;2023-03-23T06:00:03;2.67;;;2.10;;
5303;SDS011;2674;49.722;10.892;2023-03-23T06:02:39;3.43;;;2.60;;
5303;SDS011;2674;49.722;10.892;2023-03-23T06:05:08;5.67;;;3.17;;
5303;SDS011;2674;49.722;10.892;2023-03-23T06:07:35;6.03;;;3.57;;
5303;SDS011;2674;49.722;10.892;2023-03-23T06:10:03;5.40;;;3.50;;
5303;SDS011;2674;49.722;10.892;2023-03-23T06:12:30;9.30;;;5.20;;
5303;SDS011;2674;49.722;10.892;2023-03-23T06:14:56;6.17;;;5.03;;
5303;SDS011;2674;49.722;10.892;2023-03-23T06:17:22;8.23;;;4.13;;
5303;SDS011;2674;49.722;10.892;2023-03-23T06:19:48;8.53;;;4.33;;
5303;SDS011;2674;49.722;10.892;2023-03-23T06:22:16;8.00;;;5.10;;
5303;SDS011;2674;49.722;10.892;2023-03-23T06:24:42;9.90;;;5.10;;
5303;SDS011;2674;49.722;10.892;2023-03-23T06:27:09;5.33;;;4.63;;
5303;SDS011;2674;49.722;10.892;2023-03-23T06:29:35;4.00;;;3.60;;
5303;SDS011;2674;49.722;10.892;2023-03-23T06:32:02;5.47;;;3.20;;
5303;SDS011;2674;49.722;10.892;2023-03-23T06:34:30;4.53;;;3.03;;
5303;SDS011;2674;49.722;10.892;2023-03-23T06:36:57;6.57;;;2.93;;
5303;SDS011;2674;49.722;10.892;2023-03-23T06:39:23;3.57;;;2.70;;
5303;SDS011;2674;49.722;10.892;2023-03-23T06:41:49;2.80;;;2.60;;
5303;SDS011;2674;49.722;10.892;2023-03-23T06:44:15;6.47;;;3.50;;
5303;SDS011;2674;49.722;10.892;2023-03-23T06:46:42;6.10;;;3.60;;
5303;SDS011;2674;49.722;10.892;2023-03-23T06:49:08;4.67;;;3.90;;
5303;SDS011;2674;49.722;10.892;2023-03-23T06:51:35;4.70;;;3.70;;
5303;SDS011;2674;49.722;10.892;2023-03-23T06:54:01;5.33;;;3.47;;
5303;SDS011;2674;49.722;10.892;2023-03-23T06:56:27;6.33;;;3.67;;
5303;SDS011;2674;49.722;10.892;2023-03-23T06:58:55;7.37;;;4.50;;
5303;SDS011;2674;49.722;10.892;2023-03-23T07:01:20;8.70;;;4.00;;
5303;SDS011;2674;49.722;10.892;2023-03-23T07:03:47;4.43;;;3.43;;
5303;SDS011;2674;49.722;10.892;2023-03-23T07:06:14;5.60;;;2.30;;
5303;SDS011;2674;49.722;10.892;2023-03-23T07:08:41;7.93;;;3.43;;
5303;SDS011;2674;49.722;10.892;2023-03-23T07:11:07;9.23;;;4.30;;
5303;SDS011;2674;49.722;10.892;2023-03-23T07:13:35;7.27;;;5.00;;
5303;SDS011;2674;49.722;10.892;2023-03-23T07:16:04;4.47;;;4.03;;
5303;SDS011;2674;49.722;10.892;2023-03-23T07:18:31;5.80;;;3.70;;
5303;SDS011;2674;49.722;10.892;2023-03-23T07:20:57;5.40;;;3.87;;
5303;SDS011;2674;49.722;10.892;2023-03-23T07:23:23;6.00;;;2.87;;
5303;SDS011;2674;49.722;10.892;2023-03-23T07:25:49;8.93;;;4.43;;
5303;SDS011;2674;49.722;10.892;2023-03-23T07:28:15;5.00;;;2.87;;
5303;SDS011;2674;49.722;10.892;2023-03-23T07:30:41;3.80;;;2.60;;
5303;SDS011;2674;49.722;10.892;2023-03-23T07:33:08;6.60;;;3.00;;
5303;SDS011;2674;49.722;10.892;2023-03-23T07:35:38;5.10;;;3.20;;
5303;SDS011;2674;49.722;10.892;2023-03-23T07:38:10;3.43;;;2.87;;
5303;SDS011;2674;49.722;10.892;2023-03-23T07:40:36;3.00;;;2.80;;
5303;SDS011;2674;49.722;10.892;2023-03-23T07:43:05;12.00;;;2.87;;
5303;SDS011;2674;49.722;10.892;2023-03-23T07:45:34;2.63;;;2.47;;
5303;SDS011;2674;49.722;10.892;2023-03-23T07:48:00;7.63;;;2.83;;
5303;SDS011;2674;49.722;10.892;2023-03-23T07:50:26;3.80;;;2.70;;
5303;SDS011;2674;49.722;10.892;2023-03-23T07:52:56;6.00;;;2.50;;
5303;SDS011;2674;49.722;10.892;2023-03-23T07:55:23;3.23;;;2.93;;
5303;SDS011;2674;49.722;10.892;2023-03-23T07:57:50;6.03;;;2.83;;
5303;SDS011;2674;49.722;10.892;2023-03-23T08:00:18;4.50;;;2.73;;
5303;SDS011;2674;49.722;10.892;2023-03-23T08:02:48;3.73;;;2.63;;
5303;SDS011;2674;49.722;10.892;2023-03-23T08:05:18;3.43;;;3.00;;
5303;SDS011;2674;49.722;10.892;2023-03-23T08:07:47;6.03;;;2.70;;
5303;SDS011;2674;49.722;10.892;2023-03-23T08:10:13;4.60;;;2.67;;
5303;SDS011;2674;49.722;10.892;2023-03-23T08:12:41;4.10;;;2.80;;
5303;SDS011;2674;49.722;10.892;2023-03-23T08:15:09;3.40;;;2.67;;
5303;SDS011;2674;49.722;10.892;2023-03-23T08:17:39;3.13;;;2.60;;
5303;SDS011;2674;49.722;10.892;2023-03-23T08:20:13;5.27;;;3.03;;
5303;SDS011;2674;49.722;10.892;2023-03-23T08:22:40;3.77;;;3.00;;
5303;SDS011;2674;49.722;10.892;2023-03-23T08:25:09;3.43;;;3.13;;
5303;SDS011;2674;49.722;10.892;2023-03-23T08:27:37;3.83;;;2.97;;
5303;SDS011;2674;49.722;10.892;2023-03-23T08:30:08;6.20;;;3.97;;
5303;SDS011;2674;49.722;10.892;2023-03-23T08:32:39;2.77;;;2.60;;
5303;SDS011;2674;49.722;10.892;2023-03-23T08:35:06;7.27;;;3.50;;
5303;SDS011;2674;49.722;10.892;2023-03-23T08:37:34;5.77;;;3.53;;
5303;SDS011;2674;49.722;10.892;2023-03-23T08:40:00;9.03;;;2.87;;
5303;SDS011;2674;49.722;10.892;2023-03-23T08:42:32;5.10;;;3.40;;
5303;SDS011;2674;49.722;10.892;2023-03-23T08:44:58;3.53;;;3.17;;
5303;SDS011;2674;49.722;10.892;2023-03-23T08:47:24;4.00;;;3.03;;
5303;SDS011;2674;49.722;10.892;2023-03-23T08:49:50;4.60;;;2.97;;
5303;SDS011;2674;49.722;10.892;2023-03-23T08:52:19;8.63;;;3.00;;
5303;SDS011;2674;49.722;10.892;2023-03-23T08:54:45;5.00;;;2.77;;
5303;SDS011;2674;49.722;10.892;2023-03-23T08:57:12;5.47;;;3.03;;
5303;SDS011;2674;49.722;10.892;2023-03-23T08:59:39;9.40;;;3.00;;
5303;SDS011;2674;49.722;10.892;2023-03-23T09:02:08;4.20;;;3.27;;
5303;SDS011;2674;49.722;10.892;2023-03-23T09:04:38;5.83;;;3.20;;
5303;SDS011;2674;49.722;10.892;2023-03-23T09:07:08;4.17;;;2.33;;
5303;SDS011;2674;49.722;10.892;2023-03-23T09:09:38;4.77;;;2.97;;
5303;SDS011;2674;49.722;10.892;2023-03-23T09:12:05;6.73;;;3.30;;
5303;SDS011;2674;49.722;10.892;2023-03-23T09:14:32;5.90;;;3.63;;
5303;SDS011;2674;49.722;10.892;2023-03-23T09:16:58;9.20;;;3.93;;
5303;SDS011;2674;49.722;10.892;2023-03-23T09:19:23;5.13;;;3.13;;
5303;SDS011;2674;49.722;10.892;2023-03-23T09:21:49;4.10;;;3.50;;
5303;SDS011;2674;49.722;10.892;2023-03-23T09:24:16;3.30;;;2.90;;
5303;SDS011;2674;49.722;10.892;2023-03-23T09:26:41;7.23;;;3.53;;
5303;SDS011;2674;49.722;10.892;2023-03-23T09:29:07;5.40;;;2.83;;
5303;SDS011;2674;49.722;10.892;2023-03-23T09:31:33;3.20;;;2.70;;
5303;SDS011;2674;49.722;10.892;2023-03-23T09:34:01;3.93;;;3.17;;
5303;SDS011;2674;49.722;10.892;2023-03-23T09:36:28;4.20;;;2.90;;
5303;SDS011;2674;49.722;10.892;2023-03-23T09:38:57;3.00;;;2.70;;
5303;SDS011;2674;49.722;10.892;2023-03-23T09:49:59;4.13;;;3.10;;
5303;SDS011;2674;49.722;10.892;2023-03-23T09:55:18;6.80;;;3.20;;
5303;SDS011;2674;49.722;10.892;2023-03-23T10:01:06;4.90;;;2.47;;
5303;SDS011;2674;49.722;10.892;2023-03-23T10:03:42;3.27;;;2.50;;
5303;SDS011;2674;49.722;10.892;2023-03-23T10:06:10;8.63;;;2.30;;
5303;SDS011;2674;49.722;10.892;2023-03-23T10:08:45;3.10;;;2.60;;
5303;SDS011;2674;49.722;10.892;2023-03-23T10:11:23;8.07;;;3.67;;
5303;SDS011;2674;49.722;10.892;2023-03-23T10:14:12;4.90;;;3.40;;
5303;SDS011;2674;49.722;10.892;2023-03-23T10:22:11;3.53;;;2.53;;
5303;SDS011;2674;49.722;10.892;2023-03-23T10:24:43;2.50;;;2.30;;
5303;SDS011;2674;49.722;10.892;2023-03-23T10:30:33;2.10;;;1.90;;
5303;SDS011;2674;49.722;10.892;2023-03-23T10:38:31;2.80;;;1.63;;
5303;SDS011;2674;49.722;10.892;2023-03-23T10:41:03;3.07;;;1.80;;
5303;SDS011;2674;49.722;10.892;2023-03-23T10:43:34;8.00;;;2.73;;
5303;SDS011;2674;49.722;10.892;2023-03-23T10:46:01;3.70;;;1.97;;
5303;SDS011;2674;49.722;10.892;2023-03-23T10:48:31;3.83;;;1.50;;
5303;SDS011;2674;49.722;10.892;2023-03-23T10:51:03;1.40;;;1.30;;
5303;SDS011;2674;49.722;10.892;2023-03-23T10:53:32;2.97;;;1.70;;
5303;SDS011;2674;49.722;10.892;2023-03-23T10:56:01;2.00;;;1.20;;
5303;SDS011;2674;49.722;10.892;2023-03-23T10:58:29;1.77;;;1.10;;
5303;SDS011;2674;49.722;10.892;2023-03-23T11:01:00;6.33;;;1.67;;
5303;SDS011;2674;49.722;10.892;2023-03-23T11:03:42;1.80;;;1.70;;
5303;SDS011;2674;49.722;10.892;2023-03-23T11:06:10;2.93;;;1.63;;
5303;SDS011;2674;49.722;10.892;2023-03-23T11:08:56;1.60;;;1.50;;
5303;SDS011;2674;49.722;10.892;2023-03-23T11:11:49;4.80;;;1.50;;
5303;SDS011;2674;49.722;10.892;2023-03-23T11:16:59;2.67;;;1.30;;
5303;SDS011;2674;49.722;10.892;2023-03-23T11:21:55;1.90;;;1.80;;
5303;SDS011;2674;49.722;10.892;2023-03-23T11:24:26;14.63;;;1.80;;
5303;SDS011;2674;49.722;10.892;2023-03-23T11:26:52;4.00;;;2.40;;
5303;SDS011;2674;49.722;10.892;2023-03-23T11:29:26;1.87;;;1.70;;
5303;SDS011;2674;49.722;10.892;2023-03-23T11:34:30;1.70;;;1.60;;
5303;SDS011;2674;49.722;10.892;2023-03-23T11:37:08;3.50;;;1.30;;
5303;SDS011;2674;49.722;10.892;2023-03-23T11:42:26;3.77;;;1.47;;
5303;SDS011;2674;49.722;10.892;2023-03-23T11:56:54;2.63;;;1.70;;
5303;SDS011;2674;49.722;10.892;2023-03-23T11:59:28;1.90;;;1.80;;
5303;SDS011;2674;49.722;10.892;2023-03-23T12:10:12;2.13;;;1.80;;
5303;SDS011;2674;49.722;10.892;2023-03-23T12:20:41;1.70;;;1.60;;
5303;SDS011;2674;49.722;10.892;2023-03-23T12:31:17;2.50;;;2.30;;
5303;SDS011;2674;49.722;10.892;2023-03-23T12:47:47;5.20;;;2.50;;
5303;SDS011;2674;49.722;10.892;2023-03-23T12:53:08;3.13;;;2.10;;
5303;SDS011;2674;49.722;10.892;2023-03-23T12:55:49;2.90;;;2.10;;
5303;SDS011;2674;49.722;10.892;2023-03-23T12:58:20;2.50;;;2.30;;
5303;SDS011;2674;49.722;10.892;2023-03-23T13:06:02;2.53;;;1.83;;
5303;SDS011;2674;49.722;10.892;2023-03-23T13:08:44;2.60;;;2.40;;
5303;SDS011;2674;49.722;10.892;2023-03-23T13:11:20;5.20;;;2.30;;
5303;SDS011;2674;49.722;10.892;2023-03-23T13:13:56;2.27;;;2.10;;
5303;SDS011;2674;49.722;10.892;2023-03-23T13:17:02;4.03;;;2.13;;
5303;SDS011;2674;49.722;10.892;2023-03-23T13:19:54;2.10;;;1.90;;
5303;SDS011;2674;49.722;10.892;2023-03-23T13:25:43;6.90;;;1.90;;
5303;SDS011;2674;49.722;10.892;2023-03-23T13:28:17;3.07;;;1.90;;
5303;SDS011;2674;49.722;10.892;2023-03-23T13:30:58;1.93;;;1.53;;
5303;SDS011;2674;49.722;10.892;2023-03-23T13:33:57;1.57;;;1.47;;
5303;SDS011;2674;49.722;10.892;2023-03-23T13:36:30;3.13;;;1.50;;
5303;SDS011;2674;49.722;10.892;2023-03-23T13:39:02;2.03;;;1.90;;
5303;SDS011;2674;49.722;10.892;2023-03-23T13:41:54;1.60;;;1.50;;
5303;SDS011;2674;49.722;10.892;2023-03-23T13:49:51;1.60;;;1.50;;
5303;SDS011;2674;49.722;10.892;2023-03-23T14:00:45;3.03;;;1.90;;
5303;SDS011;2674;49.722;10.892;2023-03-23T14:03:15;1.63;;;1.53;;
5303;SDS011;2674;49.722;10.892;2023-03-23T14:06:16;2.40;;;1.90;;
5303;SDS011;2674;49.722;10.892;2023-03-23T14:08:51;2.03;;;1.13;;
5303;SDS011;2674;49.722;10.892;2023-03-23T14:11:23;1.80;;;1.17;;
5303;SDS011;2674;49.722;10.892;2023-03-23T14:16:23;1.53;;;1.33;;
5303;SDS011;2674;49.722;10.892;2023-03-23T14:18:59;1.13;;;1.13;;
5303;SDS011;2674;49.722;10.892;2023-03-23T14:21:39;1.90;;;1.80;;
5303;SDS011;2674;49.722;10.892;2023-03-23T14:26:37;2.00;;;1.60;;
5303;SDS011;2674;49.722;10.892;2023-03-23T14:29:05;1.47;;;1.30;;
5303;SDS011;2674;49.722;10.892;2023-03-23T14:31:32;4.40;;;1.80;;
5303;SDS011;2674;49.722;10.892;2023-03-23T14:34:02;3.30;;;2.03;;
5303;SDS011;2674;49.722;10.892;2023-03-23T14:36:31;2.03;;;1.60;;
5303;SDS011;2674;49.722;10.892;2023-03-23T14:39:18;1.87;;;1.70;;
5303;SDS011;2674;49.722;10.892;2023-03-23T14:41:51;2.20;;;2.00;;
5303;SDS011;2674;49.722;10.892;2023-03-23T14:44:28;1.63;;;1.57;;
5303;SDS011;2674;49.722;10.892;2023-03-23T14:47:09;1.63;;;1.53;;
5303;SDS011;2674;49.722;10.892;2023-03-23T14:49:41;5.20;;;2.20;;
5303;SDS011;2674;49.722;10.892;2023-03-23T14:52:12;2.70;;;1.70;;
5303;SDS011;2674;49.722;10.892;2023-03-23T14:54:40;1.87;;;1.70;;
5303;SDS011;2674;49.722;10.892;2023-03-23T14:57:13;3.57;;;2.03;;
5303;SDS011;2674;49.722;10.892;2023-03-23T14:59:43;1.50;;;1.40;;
5303;SDS011;2674;49.722;10.892;2023-03-23T15:02:14;1.73;;;1.63;;
5303;SDS011;2674;49.722;10.892;2023-03-23T15:04:45;2.97;;;1.70;;
5303;SDS011;2674;49.722;10.892;2023-03-23T15:07:13;2.00;;;1.80;;
5303;SDS011;2674;49.722;10.892;2023-03-23T15:09:42;1.63;;;1.50;;
5303;SDS011;2674;49.722;10.892;2023-03-23T15:12:16;3.93;;;1.70;;
5303;SDS011;2674;49.722;10.892;2023-03-23T15:14:47;2.13;;;1.80;;
5303;SDS011;2674;49.722;10.892;2023-03-23T15:17:32;2.97;;;1.80;;
5303;SDS011;2674;49.722;10.892;2023-03-23T15:20:09;3.20;;;2.00;;
5303;SDS011;2674;49.722;10.892;2023-03-23T15:22:45;3.60;;;2.20;;
5303;SDS011;2674;49.722;10.892;2023-03-23T15:25:18;1.90;;;1.80;;
5303;SDS011;2674;49.722;10.892;2023-03-23T15:27:54;3.87;;;2.77;;
5303;SDS011;2674;49.722;10.892;2023-03-23T15:32:48;2.17;;;2.00;;
5303;SDS011;2674;49.722;10.892;2023-03-23T15:38:14;1.90;;;1.80;;
5303;SDS011;2674;49.722;10.892;2023-03-23T15:40:52;2.30;;;2.20;;
5303;SDS011;2674;49.722;10.892;2023-03-23T15:48:47;3.27;;;2.10;;
5303;SDS011;2674;49.722;10.892;2023-03-23T15:51:34;2.40;;;1.70;;
5303;SDS011;2674;49.722;10.892;2023-03-23T15:54:02;2.67;;;2.47;;
5303;SDS011;2674;49.722;10.892;2023-03-23T15:56:28;4.80;;;2.80;;
5303;SDS011;2674;49.722;10.892;2023-03-23T15:58:54;11.20;;;2.67;;
5303;SDS011;2674;49.722;10.892;2023-03-23T16:01:24;3.67;;;2.20;;
5303;SDS011;2674;49.722;10.892;2023-03-23T16:03:55;6.10;;;2.43;;
5303;SDS011;2674;49.722;10.892;2023-03-23T16:06:29;2.43;;;2.30;;
5303;SDS011;2674;49.722;10.892;2023-03-23T16:08:57;2.83;;;2.23;;
5303;SDS011;2674;49.722;10.892;2023-03-23T16:11:26;5.23;;;2.90;;
5303;SDS011;2674;49.722;10.892;2023-03-23T16:13:53;2.77;;;2.57;;
5303;SDS011;2674;49.722;10.892;2023-03-23T16:16:30;6.70;;;2.30;;
5303;SDS011;2674;49.722;10.892;2023-03-23T16:19:02;6.03;;;2.27;;
5303;SDS011;2674;49.722;10.892;2023-03-23T16:21:29;2.70;;;2.50;;
5303;SDS011;2674;49.722;10.892;2023-03-23T16:23:55;3.37;;;2.47;;
5303;SDS011;2674;49.722;10.892;2023-03-23T16:26:21;2.27;;;2.10;;
5303;SDS011;2674;49.722;10.892;2023-03-23T16:28:47;2.50;;;2.30;;
5303;SDS011;2674;49.722;10.892;2023-03-23T16:31:13;4.40;;;2.60;;
5303;SDS011;2674;49.722;10.892;2023-03-23T16:33:39;4.87;;;3.57;;
5303;SDS011;2674;49.722;10.892;2023-03-23T16:39:14;8.00;;;3.70;;
5303;SDS011;2674;49.722;10.892;2023-03-23T16:41:43;6.40;;;4.13;;
5303;SDS011;2674;49.722;10.892;2023-03-23T16:44:10;4.07;;;3.70;;
5303;SDS011;2674;49.722;10.892;2023-03-23T16:46:36;5.50;;;4.40;;
5303;SDS011;2674;49.722;10.892;2023-03-23T16:49:02;3.90;;;3.10;;
5303;SDS011;2674;49.722;10.892;2023-03-23T16:51:28;4.43;;;3.73;;
5303;SDS011;2674;49.722;10.892;2023-03-23T16:53:53;3.60;;;3.03;;
5303;SDS011;2674;49.722;10.892;2023-03-23T16:56:20;9.40;;;2.73;;
5303;SDS011;2674;49.722;10.892;2023-03-23T16:58:45;5.37;;;3.80;;
5303;SDS011;2674;49.722;10.892;2023-03-23T17:01:11;4.43;;;2.87;;
5303;SDS011;2674;49.722;10.892;2023-03-23T17:03:38;6.63;;;3.40;;
5303;SDS011;2674;49.722;10.892;2023-03-23T17:06:04;4.37;;;3.57;;
5303;SDS011;2674;49.722;10.892;2023-03-23T17:08:30;4.13;;;3.40;;
5303;SDS011;2674;49.722;10.892;2023-03-23T17:10:56;7.87;;;4.30;;
5303;SDS011;2674;49.722;10.892;2023-03-23T17:13:22;4.83;;;2.73;;
5303;SDS011;2674;49.722;10.892;2023-03-23T17:15:51;4.80;;;3.00;;
5303;SDS011;2674;49.722;10.892;2023-03-23T17:18:18;4.60;;;3.20;;
5303;SDS011;2674;49.722;10.892;2023-03-23T17:20:44;4.20;;;2.80;;
5303;SDS011;2674;49.722;10.892;2023-03-23T17:23:10;12.60;;;3.30;;
5303;SDS011;2674;49.722;10.892;2023-03-23T17:25:36;3.93;;;3.47;;
5303;SDS011;2674;49.722;10.892;2023-03-23T17:28:02;6.20;;;3.17;;
5303;SDS011;2674;49.722;10.892;2023-03-23T17:30:28;5.57;;;4.13;;
5303;SDS011;2674;49.722;10.892;2023-03-23T17:32:54;6.60;;;5.13;;
5303;SDS011;2674;49.722;10.892;2023-03-23T17:38:07;12.07;;;7.20;;
5303;SDS011;2674;49.722;10.892;2023-03-23T17:40:32;10.63;;;8.20;;
5303;SDS011;2674;49.722;10.892;2023-03-23T17:42:58;8.87;;;7.37;;
5303;SDS011;2674;49.722;10.892;2023-03-23T17:45:24;13.50;;;7.50;;
5303;SDS011;2674;49.722;10.892;2023-03-23T17:47:50;15.53;;;8.40;;
5303;SDS011;2674;49.722;10.892;2023-03-23T17:50:16;13.77;;;6.87;;
5303;SDS011;2674;49.722;10.892;2023-03-23T17:52:42;10.60;;;6.67;;